»·PEaware :: N701GT KCRQ-KPHX

N701GT :: KCRQ-KPHX

FLIGHT INFORMATION

Flight Status: Arrived
Operator: Privately registered:
United States
More flights under this callsign
Pilot: Anonymous 17564 (17564)
Aircraft: CESSNA 310
(C310)
More flights by this aircraft type
Origin: KCRQ McClellan-Palomar
United States
Destination: KPHX Phoenix Sky Harbor Intl
United States
More flights between these airports :: More routes between these airports
Route: +OCN V208 JLI V460 SHADI V64 BLH BLH5
File this flight plan on PilotEdge
Remarks:
Altitude:
(Current/Filed)
15,000ft
Speed:
(Current/Filed)
180kts
Departed: 09-Jul-18 02:31 PM
Arrived: 09-Jul-18 04:22 PM
Distance/Time
Traveled:
264nm/1:51
Distance/Time
To Go:
Arrived

Flight Plot

Page will automatically refresh every two minutes.


Map Options




Map Legend


Flown Route
Filed Route
Departure Airport
Arrival Airport
Navaid (VOR, NDB)
Fix

Horizontal Profiles

Position Reports

Time Latitude Longitude Heading Altitude Ground
Speed
09-Jul-18 14:15 33.127719 -117.275409 76 303ft 0kts
09-Jul-18 14:16 33.127719 -117.275409 76 303ft 0kts
09-Jul-18 14:17 33.127719 -117.275409 76 303ft 0kts
09-Jul-18 14:18 33.127719 -117.275409 76 303ft 0kts
09-Jul-18 14:19 33.127719 -117.275409 76 303ft 0kts
09-Jul-18 14:20 33.127719 -117.275409 76 303ft 0kts
09-Jul-18 14:21 33.127719 -117.275409 76 303ft 0kts
09-Jul-18 14:22 33.127719 -117.275409 76 303ft 0kts
09-Jul-18 14:23 33.127719 -117.275409 76 303ft 0kts
09-Jul-18 14:24 33.127719 -117.275409 76 303ft 0kts
09-Jul-18 14:25 33.127719 -117.275409 76 303ft 0kts
09-Jul-18 14:26 33.127719 -117.275409 76 303ft 0kts
09-Jul-18 14:27 33.127719 -117.275409 76 303ft 0kts
09-Jul-18 14:28 33.127860 -117.275276 22 303ft 6kts
09-Jul-18 14:29 33.128268 -117.274821 84 303ft 10kts
09-Jul-18 14:30 33.128722 -117.272451 25 303ft 0kts
09-Jul-18 14:31 33.128759 -117.272438 9 303ft 5kts
09-Jul-18 14:32 33.126968 -117.290079 261 463ft 126kts
09-Jul-18 14:33 33.122455 -117.337535 261 1608ft 153kts
09-Jul-18 14:34 33.117430 -117.388935 262 2708ft 156kts
09-Jul-18 14:35 33.131828 -117.426319 16 3788ft 149kts
09-Jul-18 14:36 33.145314 -117.387226 89 4898ft 139kts
09-Jul-18 14:37 33.145374 -117.341158 90 6002ft 138kts
09-Jul-18 14:38 33.145231 -117.294608 90 7125ft 143kts
09-Jul-18 14:39 33.145026 -117.246305 90 8253ft 149kts
09-Jul-18 14:40 33.144806 -117.196622 90 9343ft 151kts
09-Jul-18 14:41 33.144564 -117.148358 89 10232ft 141kts
09-Jul-18 14:42 33.144316 -117.101333 89 10929ft 142kts
09-Jul-18 14:43 33.144048 -117.054469 89 11601ft 138kts
09-Jul-18 14:44 33.143769 -117.009420 88 12274ft 133kts
09-Jul-18 14:45 33.143492 -116.964443 88 13017ft 142kts
09-Jul-18 14:46 33.143180 -116.916779 89 13583ft 143kts
09-Jul-18 14:47 33.142843 -116.869759 89 14073ft 140kts
09-Jul-18 14:48 33.142498 -116.822526 89 14599ft 149kts
09-Jul-18 14:49 33.142114 -116.772665 89 15059ft 154kts
09-Jul-18 14:50 33.141682 -116.718320 89 15070ft 173kts
09-Jul-18 14:51 33.141194 -116.660770 89 15066ft 177kts
09-Jul-18 14:52 33.140675 -116.603830 89 15036ft 166kts
09-Jul-18 14:53 33.158003 -116.555958 56 15037ft 161kts
09-Jul-18 14:54 33.183789 -116.512283 56 15034ft 160kts
09-Jul-18 14:55 33.210101 -116.467559 56 15029ft 174kts
09-Jul-18 14:56 33.238073 -116.419956 56 15003ft 179kts
09-Jul-18 14:57 33.265606 -116.373007 56 14975ft 166kts
09-Jul-18 14:58 33.291743 -116.328240 56 14969ft 162kts
09-Jul-18 14:59 33.317512 -116.284145 56 14965ft 161kts
09-Jul-18 15:00 33.343157 -116.240319 56 14963ft 161kts
09-Jul-18 15:01 33.369178 -116.196580 55 14949ft 162kts
09-Jul-18 15:02 33.394666 -116.151210 62 14855ft 170kts
09-Jul-18 15:03 33.420647 -116.106785 56 14959ft 161kts
09-Jul-18 15:04 33.446637 -116.062393 56 14933ft 162kts
09-Jul-18 15:05 33.472455 -116.017968 56 14933ft 162kts
09-Jul-18 15:06 33.498261 -115.973757 54 14924ft 162kts
09-Jul-18 15:07 33.523336 -115.928115 55 14920ft 156kts
09-Jul-18 15:08 33.548448 -115.884641 57 14971ft 158kts
09-Jul-18 15:09 33.574347 -115.841485 56 14955ft 162kts
09-Jul-18 15:10 33.600224 -115.797178 57 14952ft 161kts
09-Jul-18 15:11 33.621076 -115.750695 91 14951ft 160kts
09-Jul-18 15:12 33.619374 -115.697414 90 14957ft 160kts
09-Jul-18 15:13 33.618213 -115.644044 90 14946ft 161kts
09-Jul-18 15:14 33.616537 -115.599264 89 14938ft 161kts
09-Jul-18 15:15 33.615825 -115.545189 91 14933ft 162kts
09-Jul-18 15:16 33.614764 -115.491458 90 14949ft 160kts
09-Jul-18 15:17 33.613570 -115.438015 90 14943ft 159kts
09-Jul-18 15:18 33.612336 -115.383624 90 14940ft 163kts
09-Jul-18 15:19 33.611082 -115.329594 90 14951ft 160kts
09-Jul-18 15:20 33.609776 -115.275196 90 14967ft 170kts
09-Jul-18 15:21 33.608345 -115.217853 90 14955ft 175kts
09-Jul-18 15:22 33.606877 -115.159705 91 14962ft 176kts
09-Jul-18 15:23 33.605405 -115.102263 90 14952ft 166kts
09-Jul-18 15:24 33.603965 -115.046890 90 14964ft 171kts
09-Jul-18 15:25 33.602460 -114.990236 90 14953ft 165kts
09-Jul-18 15:26 33.600992 -114.935982 90 14950ft 161kts
09-Jul-18 15:27 33.599519 -114.882329 90 14955ft 161kts
09-Jul-18 15:28 33.598005 -114.827519 90 14966ft 172kts
09-Jul-18 15:29 33.596399 -114.770337 90 14967ft 172kts
09-Jul-18 15:30 33.592063 -114.713218 94 14968ft 175kts
09-Jul-18 15:31 33.586813 -114.655813 94 14967ft 172kts
09-Jul-18 15:32 33.581794 -114.599827 94 14950ft 164kts
09-Jul-18 15:33 33.576891 -114.544990 94 14969ft 171kts
09-Jul-18 15:34 33.571773 -114.488018 94 14966ft 175kts
09-Jul-18 15:35 33.566653 -114.431223 94 14953ft 166kts
09-Jul-18 15:36 33.561676 -114.376869 94 14954ft 161kts
09-Jul-18 15:37 33.556807 -114.323509 94 14971ft 161kts
09-Jul-18 15:38 33.551878 -114.269921 94 14964ft 160kts
09-Jul-18 15:39 33.546892 -114.215607 94 14982ft 172kts
09-Jul-18 15:40 33.541677 -114.158778 94 14975ft 170kts
09-Jul-18 15:41 33.536417 -114.103061 94 14974ft 165kts
09-Jul-18 15:42 33.531303 -114.048527 94 14978ft 164kts
09-Jul-18 15:43 33.526132 -113.993461 94 14972ft 172kts
09-Jul-18 15:44 33.520752 -113.936577 94 14974ft 174kts
09-Jul-18 15:45 33.512862 -113.880788 116 14959ft 168kts
09-Jul-18 15:46 33.490491 -113.832362 114 14968ft 164kts
09-Jul-18 15:47 33.468393 -113.783835 115 14972ft 169kts
09-Jul-18 15:48 33.445673 -113.734089 115 14972ft 173kts
09-Jul-18 15:49 33.422481 -113.683397 115 14970ft 177kts
09-Jul-18 15:50 33.399333 -113.632913 115 14955ft 168kts
09-Jul-18 15:51 33.377128 -113.584501 115 14955ft 164kts
09-Jul-18 15:52 33.355200 -113.536775 115 14959ft 163kts
09-Jul-18 15:53 33.333293 -113.489130 115 14959ft 163kts
09-Jul-18 15:54 33.311071 -113.440855 115 14967ft 171kts
09-Jul-18 15:55 33.288237 -113.391394 115 14957ft 168kts
09-Jul-18 15:56 33.267041 -113.340956 94 14707ft 176kts
09-Jul-18 15:57 33.268733 -113.280402 87 13947ft 190kts
09-Jul-18 15:58 33.270398 -113.217832 87 13125ft 185kts
09-Jul-18 15:59 33.272062 -113.156086 88 12345ft 188kts
09-Jul-18 16:00 33.273714 -113.093622 88 11722ft 191kts
09-Jul-18 16:01 33.275345 -113.031042 88 11113ft 188kts
09-Jul-18 16:02 33.276917 -112.969486 88 10494ft 183kts
09-Jul-18 16:03 33.278434 -112.907703 89 10028ft 190kts
09-Jul-18 16:04 33.279975 -112.845140 89 10027ft 190kts
09-Jul-18 16:05 33.281462 -112.783558 89 10018ft 182kts
09-Jul-18 16:06 33.293500 -112.725065 71 10037ft 187kts
09-Jul-18 16:07 33.311493 -112.666741 71 10030ft 189kts
09-Jul-18 16:08 33.329069 -112.609231 71 10010ft 180kts
09-Jul-18 16:09 33.346240 -112.553195 71 10007ft 178kts
09-Jul-18 16:10 33.363378 -112.497312 71 10014ft 178kts
09-Jul-18 16:11 33.380435 -112.441790 71 10018ft 176kts
09-Jul-18 16:12 33.397288 -112.387002 71 10016ft 175kts
09-Jul-18 16:13 33.417126 -112.334793 33 9510ft 180kts
09-Jul-18 16:14 33.468818 -112.329273 1 8040ft 193kts
09-Jul-18 16:15 33.497869 -112.300253 125 6089ft 162kts
09-Jul-18 16:16 33.456292 -112.292477 181 4114ft 154kts
09-Jul-18 16:17 33.430442 -112.260178 102 4014ft 155kts
09-Jul-18 16:18 33.427441 -112.206839 89 4013ft 165kts
09-Jul-18 16:19 33.429256 -112.157593 91 3264ft 135kts
09-Jul-18 16:20 33.428870 -112.112651 91 2533ft 123kts
09-Jul-18 16:21 33.428813 -112.072199 87 1939ft 126kts
09-Jul-18 16:22 33.428900 -112.030060 89 1223ft 119kts
09-Jul-18 16:23 33.428807 -112.010178 92 1138ft 31kts
09-Jul-18 16:24 33.428232 -112.006299 182 1138ft 0kts
09-Jul-18 16:25 33.427791 -112.010822 269 1138ft 21kts
09-Jul-18 16:26 33.427783 -112.018011 269 1138ft 23kts
09-Jul-18 16:27 33.426030 -112.021487 141 1138ft 13kts
09-Jul-18 16:28 33.425595 -112.021269 185 1138ft 0kts
09-Jul-18 16:29 33.425595 -112.021269 185 1138ft 0kts
09-Jul-18 16:30 33.425595 -112.021269 185 1138ft 0kts
09-Jul-18 16:31 33.425595 -112.021269 185 1138ft 0kts
09-Jul-18 16:32 33.425595 -112.021269 185 1138ft 0kts
09-Jul-18 16:33 33.425595 -112.021269 185 1138ft 0kts
09-Jul-18 16:34 33.425595 -112.021269 185 1138ft 0kts
09-Jul-18 16:35 33.425595 -112.021269 185 1138ft 0kts
09-Jul-18 16:36 33.425595 -112.021269 185 1138ft 0kts
09-Jul-18 16:37 33.425595 -112.021269 185 1138ft 0kts

Navigation Log

Ident Type
Flight plan parsing failed, navigation log unavailable